Time;durP1;ratioP1;P1;durP2;ratioP2;P2;SDS_P1;SDS_P2;PMS_P1;PMS_P2;Temp;Humidity;BMP_temperature;BMP_pressure;BME280_temperature;BME280_humidity;BME280_pressure;Samples;Min_cycle;Max_cycle;Signal;HPM_P1;HPM_P2
2022/08/09 00:00:11;;;;;;;12.98;11.65;;;;;;;20.18;100.00;101104.02;1631115;88;20994;-88
2022/08/09 00:02:42;;;;;;;24.32;12.23;;;;;;;20.14;100.00;101103.19;1630623;88;21150;-88
2022/08/09 00:05:09;;;;;;;13.38;12.10;;;;;;;20.10;100.00;101107.98;1630773;88;21077;-89
2022/08/09 00:07:42;;;;;;;15.90;12.00;;;;;;;20.07;100.00;101108.30;1630669;88;21152;-88
2022/08/09 00:10:10;;;;;;;15.25;11.55;;;;;;;20.07;100.00;101110.14;1627316;88;21057;-89
2022/08/09 00:12:40;;;;;;;13.97;12.50;;;;;;;20.06;100.00;101108.00;1630912;88;21575;-89
2022/08/09 00:15:08;;;;;;;13.62;12.05;;;;;;;20.06;100.00;101108.00;1630778;86;21780;-89
2022/08/09 00:17:39;;;;;;;14.13;12.37;;;;;;;20.05;100.00;101108.98;1630517;88;21107;-88
2022/08/09 00:20:09;;;;;;;13.22;11.95;;;;;;;20.05;100.00;101107.67;1630750;88;21064;-89
2022/08/09 00:22:40;;;;;;;13.62;12.23;;;;;;;20.05;100.00;101108.15;1630692;88;21105;-89
2022/08/09 00:25:08;;;;;;;15.88;12.60;;;;;;;20.04;100.00;101109.98;1630722;88;21085;-88
2022/08/09 00:27:36;;;;;;;14.80;11.70;;;;;;;20.03;100.00;101116.77;1630832;88;21242;-89
2022/08/09 00:30:04;;;;;;;14.43;12.00;;;;;;;20.00;100.00;101118.73;1630565;88;21665;-90
2022/08/09 00:32:35;;;;;;;12.88;11.68;;;;;;;19.98;100.00;101116.75;1630681;88;21088;-90
2022/08/09 00:35:07;;;;;;;12.82;11.00;;;;;;;19.96;100.00;101115.27;1630744;88;21055;-89
2022/08/09 00:37:34;;;;;;;12.95;11.55;;;;;;;19.89;100.00;101111.13;1630563;88;21085;-89
2022/08/09 00:40:06;;;;;;;13.38;11.25;;;;;;;19.84;100.00;101111.61;1630536;88;21782;-89
2022/08/09 00:42:36;;;;;;;13.40;12.00;;;;;;;19.81;100.00;101109.29;1630512;88;21559;-90
2022/08/09 00:45:06;;;;;;;14.60;12.60;;;;;;;19.79;100.00;101109.94;1630753;88;21072;-90
2022/08/09 00:47:34;;;;;;;13.98;12.58;;;;;;;19.72;100.00;101102.34;1629816;87;21092;-91
2022/08/09 00:50:03;;;;;;;14.55;13.20;;;;;;;19.68;100.00;101107.61;1622019;88;21085;-91
2022/08/09 00:52:32;;;;;;;14.23;12.85;;;;;;;19.66;100.00;101103.81;1622253;88;21949;-90
2022/08/09 00:55:04;;;;;;;14.95;12.65;;;;;;;19.65;100.00;101102.16;1621760;88;20986;-90
2022/08/09 00:57:31;;;;;;;14.63;12.78;;;;;;;19.62;100.00;101101.66;1621990;88;21089;-90
2022/08/09 00:59:59;;;;;;;14.90;11.33;;;;;;;19.60;100.00;101094.39;1621913;88;21050;-90
2022/08/09 01:02:30;;;;;;;13.18;11.97;;;;;;;19.54;100.00;101092.73;1622186;88;21050;-90
2022/08/09 01:05:18;;;;;;;12.58;11.38;;;;;;;19.42;100.00;101095.38;1622247;88;21139;-89
2022/08/09 01:07:59;;;;;;;12.88;11.55;;;;;;;19.27;100.00;101093.03;1622306;87;21083;-90
2022/08/09 01:10:38;;;;;;;12.68;11.60;;;;;;;19.12;100.00;101097.58;1623386;87;21042;-90
2022/08/09 01:13:39;;;;;;;12.58;11.33;;;;;;;19.00;100.00;101094.91;1620897;88;21072;-90
2022/08/09 01:16:10;;;;;;;13.13;11.93;;;;;;;18.91;100.00;101099.28;1622390;88;21002;-90
2022/08/09 01:18:45;;;;;;;12.85;11.63;;;;;;;18.86;100.00;101102.42;1622389;87;21345;-91
2022/08/09 01:21:18;;;;;;;13.22;11.85;;;;;;;18.87;100.00;101100.09;1622158;88;21097;-91
2022/08/09 01:23:59;;;;;;;13.40;11.83;;;;;;;18.92;100.00;101098.33;1619953;88;21064;-91
2022/08/09 01:26:55;;;;;;;12.05;10.38;;;;;;;18.95;100.00;101096.70;1622065;88;21089;-91
2022/08/09 01:29:34;;;;;;;11.28;10.18;;;;;;;18.95;100.00;101102.49;1609335;88;21145;-91
2022/08/09 01:32:05;;;;;;;13.10;11.90;;;;;;;18.93;100.00;101099.98;1618115;88;22011;-91
2022/08/09 01:34:37;;;;;;;;;;;;;;;18.90;100.00;101106.38;1624369;88;21027;-91
2022/08/09 01:37:11;;;;;;;11.95;10.75;;;;;;;18.91;100.00;101105.88;1622139;87;20201;-90
2022/08/09 01:39:45;;;;;;;12.30;10.90;;;;;;;18.91;100.00;101106.72;1621870;88;21089;-90
2022/08/09 01:42:13;;;;;;;13.50;11.97;;;;;;;18.92;100.00;101107.56;1622284;87;21090;-91
2022/08/09 01:44:41;;;;;;;13.10;11.80;;;;;;;18.89;100.00;101106.05;1621807;88;21106;-90
2022/08/09 01:47:14;;;;;;;13.98;12.58;;;;;;;18.85;100.00;101109.16;1622122;88;21053;-90
2022/08/09 01:49:46;;;;;;;14.98;12.58;;;;;;;18.84;100.00;101107.50;1621209;86;21640;-90
2022/08/09 01:52:17;;;;;;;13.60;12.28;;;;;;;18.83;100.00;101114.59;1605046;88;21128;-91
2022/08/09 01:54:50;;;;;;;13.80;12.43;;;;;;;18.82;100.00;101105.53;1605096;88;23389;-91
2022/08/09 01:57:30;;;;;;;13.08;11.88;;;;;;;18.82;100.00;101105.03;1603315;88;21266;-90
2022/08/09 02:00:02;;;;;;;14.67;13.17;;;;;;;18.82;100.00;101106.85;1604608;89;21013;-91
2022/08/09 02:02:36;;;;;;;15.32;13.70;;;;;;;18.82;100.00;101106.85;1603075;88;21094;-91
2022/08/09 02:05:07;;;;;;;14.60;13.10;;;;;;;18.81;100.00;101107.83;1604651;88;21615;-90
2022/08/09 02:07:42;;;;;;;14.85;13.53;;;;;;;18.78;100.00;101111.62;1603004;89;21085;-90
2022/08/09 02:10:20;;;;;;;14.35;13.03;;;;;;;18.76;100.00;101108.30;1603474;89;21127;-91
2022/08/09 02:12:48;;;;;;;13.98;12.58;;;;;;;18.75;100.00;101109.28;1604961;88;21014;-91
2022/08/09 02:15:19;;;;;;;13.50;12.03;;;;;;;18.72;100.00;101117.50;1590781;89;21045;-91
2022/08/09 02:17:52;;;;;;;16.50;14.58;;;;;;;18.70;100.00;101113.70;1604962;88;21046;-90
2022/08/09 02:20:24;;;;;;;17.20;15.40;;;;;;;18.69;100.00;101116.00;1590842;89;21081;-90
2022/08/09 02:23:14;;;;;;;25.88;19.42;;;;;;;18.65;100.00;101119.95;1605443;88;21150;-90
2022/08/09 02:25:45;;;;;;;31.50;21.73;;;;;;;18.62;100.00;101118.13;1585972;89;21539;-90
2022/08/09 02:28:33;;;;;;;27.48;21.25;;;;;;;18.59;100.00;101118.77;1605606;89;21547;-90
2022/08/09 02:31:08;;;;;;;26.48;20.70;;;;;;;18.58;100.00;101114.47;1585054;89;21008;-90
2022/08/09 02:33:41;;;;;;;28.45;21.12;;;;;;;18.57;100.00;101117.27;1602142;89;21098;-91
2022/08/09 02:36:16;;;;;;;28.02;20.82;;;;;;;18.53;100.00;101118.08;1602061;89;21916;-91
2022/08/09 02:38:50;;;;;;;31.77;23.22;;;;;;;18.49;100.00;101124.63;1599860;89;21613;-91
2022/08/09 02:41:23;;;;;;;38.40;25.20;;;;;;;18.45;100.00;101123.30;1604091;89;21072;-90
2022/08/09 02:43:53;;;;;;;52.85;34.38;;;;;;;18.37;100.00;101143.82;1592961;89;21508;-91
2022/08/09 02:46:26;;;;;;;61.35;39.70;;;;;;;18.20;100.00;101149.95;1592277;90;21413;-91
2022/08/09 02:48:58;;;;;;;57.15;37.90;;;;;;;18.03;100.00;101132.68;1594877;89;21185;-91
2022/08/09 02:51:30;;;;;;;43.78;30.88;;;;;;;17.94;100.00;101130.45;1599356;89;21021;-91
2022/08/09 02:54:02;;;;;;;43.28;27.90;;;;;;;17.87;100.00;101128.55;1599540;89;21018;-91
2022/08/09 02:56:34;;;;;;;39.83;27.80;;;;;;;17.84;100.00;101131.00;1599233;88;21013;-91
2022/08/09 02:59:05;;;;;;;37.53;25.23;;;;;;;17.86;100.00;101123.78;1599487;89;20978;-91
2022/08/09 03:01:37;;;;;;;33.80;24.45;;;;;;;17.86;100.00;101118.52;1599459;89;21116;-91
2022/08/09 03:04:06;;;;;;;35.83;24.00;;;;;;;17.88;100.00;101125.79;1599539;89;21049;-91
2022/08/09 03:06:38;;;;;;;29.23;22.02;;;;;;;17.91;100.00;101132.55;1599223;89;21603;-91
2022/08/09 03:09:07;;;;;;;39.75;27.02;;;;;;;17.95;100.00;101137.41;1599445;89;21010;-91
2022/08/09 03:11:40;;;;;;;37.17;23.15;;;;;;;18.00;100.00;101131.69;1599406;89;21022;-90
2022/08/09 03:14:11;;;;;;;39.63;28.35;;;;;;;18.05;100.00;101132.55;1599571;89;21164;-91
2022/08/09 03:16:39;;;;;;;38.20;26.80;;;;;;;18.11;100.00;101138.52;1599416;89;21105;-90
2022/08/09 03:19:08;;;;;;;40.67;26.87;;;;;;;18.17;100.00;101146.31;1599565;89;21101;-92
2022/08/09 03:21:37;;;;;;;37.83;25.97;;;;;;;18.21;100.00;101144.55;1599338;89;21527;-91
2022/08/09 03:24:08;;;;;;;34.18;24.32;;;;;;;18.25;100.00;101147.70;1599334;89;21025;-92
2022/08/09 03:26:38;;;;;;;32.23;23.67;;;;;;;18.29;100.00;101147.72;1599621;89;21123;-90
2022/08/09 03:29:07;;;;;;;28.65;21.42;;;;;;;18.34;100.00;101144.63;1599503;89;21038;-90
2022/08/09 03:31:36;;;;;;;29.00;21.57;;;;;;;18.41;100.00;101142.55;1599331;89;21568;-90
2022/08/09 03:34:05;;;;;;;22.58;17.67;;;;;;;18.49;100.00;101144.91;1599296;89;21044;-90
2022/08/09 03:36:35;;;;;;;20.05;17.75;;;;;;;18.57;100.00;101150.23;1599707;89;21460;-90
2022/08/09 03:39:03;;;;;;;23.87;18.32;;;;;;;18.65;100.00;101148.97;1599412;89;21265;-90
2022/08/09 03:41:32;;;;;;;20.62;17.82;;;;;;;18.75;100.00;101143.57;1599116;89;21006;-91
2022/08/09 03:44:02;;;;;;;18.50;16.42;;;;;;;18.84;100.00;101141.80;1599582;89;21014;-91
2022/08/09 03:46:32;;;;;;;17.95;15.45;;;;;;;18.93;100.00;101149.31;1599492;89;21061;-90
2022/08/09 03:49:04;;;;;;;18.42;16.62;;;;;;;19.04;100.00;101145.90;1599184;89;21017;-91
2022/08/09 03:51:34;;;;;;;19.00;17.12;;;;;;;19.14;100.00;101159.47;1599269;89;21169;-90
2022/08/09 03:54:05;;;;;;;20.00;17.53;;;;;;;19.22;100.00;101152.40;1599524;88;21065;-91
2022/08/09 03:56:32;;;;;;;;;;;;;;;19.33;100.00;101156.56;1602040;89;21116;-90
2022/08/09 03:59:00;;;;;;;17.80;16.10;;;;;;;19.43;100.00;101155.60;1599437;89;20202;-90
2022/08/09 04:01:29;;;;;;;18.90;16.95;;;;;;;19.50;100.00;101152.17;1599529;89;21101;-90
2022/08/09 04:03:58;;;;;;;19.75;16.45;;;;;;;19.57;100.00;101151.02;1599291;89;21267;-91
2022/08/09 04:06:29;;;;;;;20.10;17.32;;;;;;;19.63;100.00;101155.64;1578003;89;21075;-90
2022/08/09 04:09:02;;;;;;;18.40;16.52;;;;;;;19.71;100.00;101153.52;1599270;89;21030;-90
2022/08/09 04:11:53;;;;;;;23.10;16.77;;;;;;;19.79;100.00;101154.05;1599326;89;21057;-90
2022/08/09 04:14:22;;;;;;;18.40;16.12;;;;;;;19.84;100.00;101155.22;1598836;89;21113;-90
2022/08/09 04:16:50;;;;;;;19.55;17.92;;;;;;;19.92;100.00;101153.09;1599352;89;21179;-89
2022/08/09 04:19:18;;;;;;;21.48;19.45;;;;;;;20.01;100.00;101158.72;1599240;89;21060;-89
2022/08/09 04:21:45;;;;;;;20.15;17.67;;;;;;;20.11;100.00;101157.22;1599650;89;21045;-89
2022/08/09 04:24:12;;;;;;;19.50;17.67;;;;;;;20.21;100.00;101155.73;1599216;89;21330;-90
2022/08/09 04:26:40;;;;;;;19.92;18.07;;;;;;;20.31;100.00;101151.10;1599515;89;21057;-90
2022/08/09 04:29:07;;;;;;;20.52;18.52;;;;;;;20.39;100.00;101151.58;1599302;89;21161;-90
2022/08/09 04:31:38;;;;;;;21.75;19.52;;;;;;;20.45;100.00;101148.77;1599407;89;21074;-91
2022/08/09 04:34:05;;;;;;;21.20;19.35;;;;;;;20.53;100.00;101146.62;1599543;88;21061;-90
2022/08/09 04:36:36;;;;;;;21.70;19.48;;;;;;;20.60;100.00;101147.08;1599256;89;21019;-90
2022/08/09 04:39:07;;;;;;;21.52;19.40;;;;;;;20.69;100.00;101149.70;1599218;89;21076;-90
2022/08/09 04:41:38;;;;;;;21.33;19.32;;;;;;;20.75;100.00;101151.22;1603766;89;21179;-90
2022/08/09 04:44:05;;;;;;;25.77;20.23;;;;;;;20.83;100.00;101153.52;1605768;89;21072;-90
2022/08/09 04:46:35;;;;;;;20.30;18.35;;;;;;;20.93;100.00;101152.83;1601643;89;21099;-90
2022/08/09 04:49:03;;;;;;;22.52;19.40;;;;;;;21.03;100.00;101150.78;1594582;87;21291;-90
2022/08/09 04:51:31;;;;;;;20.02;18.12;;;;;;;21.12;100.00;101148.44;1592231;89;21586;-90
2022/08/09 04:53:58;;;;;;;20.43;18.30;;;;;;;21.23;100.00;101143.25;1591863;89;21159;-91
2022/08/09 04:56:25;;;;;;;19.50;17.48;;;;;;;21.34;100.00;101143.39;1591367;90;21100;-90
2022/08/09 04:58:53;;;;;;;18.67;16.73;;;;;;;21.42;100.00;101142.50;1592310;90;21093;-91
2022/08/09 05:01:23;;;;;;;19.00;16.55;;;;;;;21.51;100.00;101139.33;1591666;89;21152;-90
2022/08/09 05:03:51;;;;;;;18.75;16.93;;;;;;;21.60;100.00;101138.28;1591513;88;21571;-90
2022/08/09 05:06:19;;;;;;;18.32;16.67;;;;;;;21.71;100.00;101140.53;1592105;90;21197;-91
2022/08/09 05:08:47;;;;;;;17.70;16.02;;;;;;;21.86;100.00;101143.73;1592091;89;21069;-90
2022/08/09 05:11:18;;;;;;;16.95;15.45;;;;;;;21.97;100.00;101140.68;1593497;90;21105;-91
2022/08/09 05:13:49;;;;;;;17.20;15.53;;;;;;;22.09;100.00;101140.23;1594636;89;21022;-91
2022/08/09 05:16:19;;;;;;;17.15;15.53;;;;;;;22.21;100.00;101133.52;1594775;90;21057;-91
2022/08/09 05:18:46;;;;;;;21.57;17.55;;;;;;;22.30;100.00;101129.80;1594665;88;21085;-91
2022/08/09 05:21:15;;;;;;;17.85;16.20;;;;;;;22.42;100.00;101129.36;1593611;88;21176;-90
2022/08/09 05:23:43;;;;;;;18.15;16.42;;;;;;;22.53;100.00;101137.70;1593983;90;21069;-91
2022/08/09 05:26:10;;;;;;;17.45;15.78;;;;;;;22.71;100.00;101142.34;1594353;90;21121;-90
2022/08/09 05:28:39;;;;;;;19.55;17.45;;;;;;;22.85;100.00;101132.22;1591186;90;21116;-90
2022/08/09 05:31:08;;;;;;;17.60;15.98;;;;;;;23.00;100.00;101126.39;1592252;88;21261;-91
2022/08/09 05:33:38;;;;;;;16.90;15.10;;;;;;;23.11;100.00;101126.41;1591852;89;21157;-91
2022/08/09 05:36:08;;;;;;;16.52;15.05;;;;;;;23.20;100.00;101131.66;1588458;90;21153;-92
2022/08/09 05:38:37;;;;;;;17.77;15.93;;;;;;;23.29;100.00;101137.98;1591947;88;21076;-91
2022/08/09 05:41:05;;;;;;;17.00;15.20;;;;;;;23.42;100.00;101146.61;1591534;90;21096;-90
2022/08/09 05:43:34;;;;;;;17.00;15.30;;;;;;;23.52;100.00;101130.35;1593221;90;21166;-91
2022/08/09 05:46:03;;;;;;;16.55;14.95;;;;;;;23.65;100.00;101134.17;1593452;88;21054;-91
2022/08/09 05:48:32;;;;;;;16.73;13.08;;;;;;;23.73;100.00;101130.06;1591649;90;21073;-91
2022/08/09 05:51:00;;;;;;;15.05;13.50;;;;;;;23.84;100.00;101126.06;1585460;89;22169;-90
2022/08/09 05:53:27;;;;;;;16.90;15.10;;;;;;;23.90;100.00;101121.30;1576878;91;21260;-90
2022/08/09 05:55:54;;;;;;;16.35;14.68;;;;;;;23.99;100.00;101120.19;1577129;91;21577;-90
2022/08/09 05:58:21;;;;;;;16.52;14.43;;;;;;;24.11;100.00;101120.48;1576590;89;21070;-90
2022/08/09 06:00:49;;;;;;;15.68;14.05;;;;;;;24.19;100.00;101116.35;1577154;90;21154;-91
2022/08/09 06:03:16;;;;;;;22.10;13.62;;;;;;;24.31;100.00;101114.50;1582640;90;21113;-91
2022/08/09 06:05:43;;;;;;;15.55;13.95;;;;;;;24.43;100.00;101128.09;1581743;90;21652;-89
2022/08/09 06:08:12;;;;;;;14.55;13.25;;;;;;;24.54;100.00;101119.05;1623748;88;21119;-88
2022/08/09 06:10:42;;;;;;;14.80;13.50;;;;;;;24.66;100.00;101117.98;1621852;88;21073;-88
2022/08/09 06:13:12;;;;;;;18.87;13.90;;;;;;;24.76;100.00;101121.64;1620754;88;21031;-88
2022/08/09 06:15:40;;;;;;;15.50;12.83;;;;;;;24.85;100.00;101127.12;1627534;86;21045;-88
2022/08/09 06:18:07;;;;;;;14.20;12.85;;;;;;;24.96;100.00;101117.73;1625371;88;21567;-87
2022/08/09 06:20:37;;;;;;;19.25;12.88;;;;;;;25.05;100.00;101115.70;1627609;87;21174;-87
2022/08/09 06:23:07;;;;;;;14.80;13.30;;;;;;;25.15;100.00;101114.02;1622675;88;21050;-88
2022/08/09 06:25:36;;;;;;;13.45;12.10;;;;;;;25.27;100.00;101115.06;1621221;88;21113;-88
2022/08/09 06:28:06;;;;;;;12.88;11.65;;;;;;;25.39;100.00;101121.19;1623599;88;21525;-87
2022/08/09 06:30:34;;;;;;;12.82;11.70;;;;;;;25.49;100.00;101118.44;1630466;88;21590;-87
2022/08/09 06:33:02;;;;;;;14.05;12.60;;;;;;;25.61;100.00;101112.48;1630560;88;21893;-88
2022/08/09 06:35:31;;;;;;;15.95;12.63;;;;;;;25.73;100.00;101106.88;1629049;88;21115;-88
2022/08/09 06:38:00;;;;;;;13.18;11.97;;;;;;;25.87;100.00;101113.53;1623964;88;21069;-88
2022/08/09 06:40:27;;;;;;;12.50;11.18;;;;;;;25.98;100.00;101106.26;1624090;88;21042;-88
2022/08/09 06:42:56;;;;;;;12.98;11.48;;;;;;;26.07;100.00;101112.19;1624985;86;21049;-88
2022/08/09 06:45:27;;;;;;;14.80;12.15;;;;;;;26.14;100.00;101108.53;1612377;88;21288;-87
2022/08/09 06:47:55;;;;;;;15.30;11.50;;;;;;;26.23;100.00;101109.13;1622666;86;21080;-88
2022/08/09 06:50:23;;;;;;;12.60;11.33;;;;;;;26.33;100.00;101102.02;1623356;88;21018;-88
2022/08/09 06:56:56;;;;;;;12.25;10.93;;;;;;;26.53;100.00;101105.17;1618673;87;21035;-86
2022/08/09 06:59:23;;;;;;;12.60;11.00;;;;;;;26.71;100.00;101106.66;1623981;88;21156;-86
2022/08/09 07:01:52;;;;;;;10.60;9.55;;;;;;;26.85;100.00;101113.30;1620886;88;21026;-87
2022/08/09 07:04:26;;;;;;;10.13;9.25;;;;;;;26.97;100.00;101114.27;1621012;88;21081;-87
2022/08/09 07:06:53;;;;;;;12.25;10.75;;;;;;;27.06;100.00;101107.65;1621101;88;21057;-87
2022/08/09 07:09:22;;;;;;;10.30;9.33;;;;;;;27.18;100.00;101113.67;1629454;87;21093;-87
2022/08/09 07:11:50;;;;;;;11.35;10.35;;;;;;;27.30;100.00;101111.13;1630691;86;21120;-87
2022/08/09 07:14:19;;;;;;;10.93;10.03;;;;;;;27.40;100.00;101110.15;1622958;86;21076;-90
2022/08/09 07:16:46;;;;;;;11.78;10.68;;;;;;;27.50;100.00;101109.70;1599088;88;21599;-90
2022/08/09 07:19:14;;;;;;;11.25;9.45;;;;;;;27.59;100.00;101108.41;1616113;86;21121;-90
2022/08/09 07:21:47;;;;;;;10.88;9.15;;;;;;;27.70;100.00;101104.20;1630665;88;21049;-87
2022/08/09 07:24:15;;;;;;;10.85;9.80;;;;;;;27.81;100.00;101101.33;1630667;87;21148;-87
2022/08/09 07:26:45;;;;;;;11.60;10.18;;;;;;;27.91;100.00;101098.98;1630628;86;20982;-87
2022/08/09 07:29:12;;;;;;;9.65;8.65;;;;;;;27.99;100.00;101100.55;1630565;86;21006;-88
2022/08/09 07:31:42;;;;;;;10.65;9.50;;;;;;;28.10;100.00;101098.53;1630656;86;21073;-88
2022/08/09 07:34:10;;;;;;;9.25;8.25;;;;;;;28.19;100.00;101100.39;1630858;88;21068;-87
2022/08/09 07:36:39;;;;;;;10.00;9.10;;;;;;;28.25;100.00;101098.16;1630700;88;21113;-88
2022/08/09 07:39:06;;;;;;;11.53;9.58;;;;;;;28.32;100.00;101101.58;1630621;86;21042;-88
2022/08/09 07:41:35;;;;;;;13.90;10.30;;;;;;;28.39;93.67;101097.50;1630799;88;21358;-87
2022/08/09 07:44:03;;;;;;;28.00;13.83;;;;;;;28.46;97.00;101102.80;1631016;88;21728;-88
2022/08/09 07:46:34;;;;;;;36.20;15.28;;;;;;;28.54;95.14;101098.98;1630585;88;21646;-91
2022/08/09 07:49:01;;;;;;;24.70;13.67;;;;;;;28.73;98.74;101107.85;1630982;86;21103;-88
2022/08/09 07:51:29;;;;;;;22.50;13.88;;;;;;;28.73;98.74;101107.85;1630388;86;21531;-88
2022/08/09 07:53:57;;;;;;;15.88;12.00;;;;;;;28.84;100.00;101110.33;1630397;88;21057;-87
2022/08/09 07:56:27;;;;;;;19.87;15.25;;;;;;;28.92;100.00;101112.16;1630166;86;21125;-88
2022/08/09 07:58:56;;;;;;;17.07;13.72;;;;;;;29.00;100.00;101109.70;1630299;87;21069;-88
2022/08/09 08:01:23;;;;;;;17.35;14.65;;;;;;;29.09;100.00;101106.97;1630337;88;21143;-87
2022/08/09 08:03:53;;;;;;;17.32;14.75;;;;;;;29.15;100.00;101109.27;1630229;86;21018;-87
2022/08/09 08:06:22;;;;;;;19.02;14.68;;;;;;;29.25;100.00;101107.38;1630280;86;21097;-87
2022/08/09 08:08:49;;;;;;;18.17;14.90;;;;;;;29.33;100.00;101098.23;1630327;86;21017;-88
2022/08/09 08:11:17;;;;;;;17.57;14.55;;;;;;;29.45;100.00;101099.06;1630590;86;21054;-88
2022/08/09 08:13:46;;;;;;;23.52;15.80;;;;;;;29.58;100.00;101099.38;1630256;86;21197;-87
2022/08/09 08:16:14;;;;;;;22.20;16.40;;;;;;;29.68;100.00;101105.00;1630361;86;21090;-88
2022/08/09 08:18:43;;;;;;;16.23;14.83;;;;;;;29.81;100.00;101097.26;1630312;86;21689;-88
2022/08/09 08:21:10;;;;;;;14.85;13.35;;;;;;;29.96;100.00;101094.16;1630722;88;21599;-92
2022/08/09 08:23:37;;;;;;;13.85;12.50;;;;;;;30.09;100.00;101100.32;1630345;86;21080;-91
2022/08/09 08:26:08;;;;;;;14.98;13.58;;;;;;;30.17;95.60;101095.40;1630440;86;21177;-90
2022/08/09 08:28:37;;;;;;;16.12;14.23;;;;;;;30.24;98.05;101097.16;1630172;86;21037;-89
2022/08/09 08:31:06;;;;;;;15.75;14.28;;;;;;;30.31;100.00;101085.77;1630330;88;21607;-88
2022/08/09 08:33:34;;;;;;;17.00;14.27;;;;;;;30.37;100.00;101085.62;1630490;87;21663;-88
2022/08/09 08:36:01;;;;;;;18.15;16.00;;;;;;;30.45;100.00;101087.64;1630569;87;20986;-88
2022/08/09 08:38:32;;;;;;;17.80;16.27;;;;;;;30.45;100.00;101077.73;1630197;86;21168;-89
2022/08/09 08:41:03;;;;;;;20.23;18.23;;;;;;;30.52;100.00;101078.98;1630412;86;28344;-88
2022/08/09 08:43:31;;;;;;;18.90;17.25;;;;;;;30.55;100.00;101076.34;1630465;88;21009;-89
2022/08/09 08:46:03;;;;;;;18.30;16.52;;;;;;;30.62;100.00;101083.19;1630466;86;21030;-88
2022/08/09 08:48:32;;;;;;;18.90;16.75;;;;;;;30.66;100.00;101078.16;1627932;86;21034;-89
2022/08/09 08:51:03;;;;;;;16.30;14.80;;;;;;;30.72;100.00;101078.56;1630243;86;21297;-88
2022/08/09 08:53:30;;;;;;;;;;;;;;;30.83;100.00;101080.38;1628767;86;21049;-91
2022/08/09 08:55:58;;;;;;;16.90;15.18;;;;;;;30.95;90.38;101081.67;1623558;87;20161;-94
2022/08/09 08:58:31;;;;;;;12.90;11.70;;;;;;;31.04;80.77;101075.39;1620398;87;21067;-93
2022/08/09 09:01:02;;;;;;;16.35;12.88;;;;;;;31.10;71.22;101071.76;1620725;87;21555;-93
2022/08/09 09:03:35;;;;;;;13.90;12.73;;;;;;;31.17;68.24;101071.59;1621334;87;22007;-94
2022/08/09 09:06:03;;;;;;;14.75;12.80;;;;;;;31.30;64.50;101066.42;1630464;86;21049;-94
2022/08/09 09:08:36;;;;;;;14.80;13.25;;;;;;;31.39;64.89;101062.28;1630414;86;21033;-95
2022/08/09 09:11:05;;;;;;;16.55;15.00;;;;;;;31.49;65.88;101063.51;1628642;86;21006;-93
2022/08/09 09:13:40;;;;;;;17.73;15.13;;;;;;;31.56;75.83;101066.33;1629214;87;21030;-94
2022/08/09 09:16:08;;;;;;;18.25;16.40;;;;;;;31.63;77.75;101068.83;1629075;87;21169;-95
2022/08/09 09:18:37;;;;;;;17.73;16.27;;;;;;;31.73;77.41;101071.72;1625697;86;21082;-94
2022/08/09 09:21:07;;;;;;;18.15;16.57;;;;;;;31.80;78.38;101062.65;1621294;87;21153;-95
2022/08/09 09:23:45;;;;;;;17.40;15.88;;;;;;;31.81;76.92;101068.32;1623448;87;21078;-94
2022/08/09 09:26:14;;;;;;;15.75;14.45;;;;;;;31.84;68.66;101067.30;1624146;86;21030;-96
2022/08/09 09:28:47;;;;;;;14.60;13.45;;;;;;;31.96;76.86;101063.16;1623534;86;21161;-92
2022/08/09 09:31:18;;;;;;;13.20;12.10;;;;;;;31.96;76.86;101063.16;1620269;87;21045;-94
2022/08/09 09:33:45;;;;;;;13.75;12.53;;;;;;;32.17;54.87;101053.47;1620440;87;21555;-92
2022/08/09 09:36:15;;;;;;;15.15;13.20;;;;;;;32.17;54.87;101053.47;1620657;87;21030;-93
2022/08/09 09:38:49;;;;;;;14.13;12.90;;;;;;;32.35;58.52;101053.71;1620530;87;21555;-92
2022/08/09 09:41:29;;;;;;;13.95;12.78;;;;;;;32.46;55.33;101053.84;1621354;87;21146;-93
2022/08/09 09:44:03;;;;;;;14.37;13.13;;;;;;;32.61;54.19;101051.31;1619531;86;21018;-92
2022/08/09 09:46:39;;;;;;;12.95;12.03;;;;;;;32.72;49.43;101045.48;1628982;86;21330;-91
2022/08/09 09:49:18;;;;;;;12.25;11.25;;;;;;;32.73;48.23;101044.42;1630086;86;21049;-93
2022/08/09 09:51:46;;;;;;;13.40;12.15;;;;;;;32.75;47.34;101044.16;1628776;86;21077;-92
2022/08/09 09:54:17;;;;;;;13.45;12.20;;;;;;;32.79;50.97;101043.98;1617934;87;21154;-92
2022/08/09 09:56:48;;;;;;;11.80;10.53;;;;;;;32.89;46.26;101041.36;1621579;87;21057;-92
2022/08/09 09:59:23;;;;;;;14.80;13.43;;;;;;;32.99;45.20;101039.31;1618547;87;21097;-92
2022/08/09 10:02:03;;;;;;;13.03;12.05;;;;;;;33.10;46.52;101039.67;1613078;87;20979;-91
2022/08/09 10:04:32;;;;;;;13.25;12.13;;;;;;;33.15;48.11;101031.64;1619744;87;21137;-93
2022/08/09 10:07:00;;;;;;;14.43;13.05;;;;;;;33.19;46.60;101040.03;1620437;88;21147;-93
2022/08/09 10:09:48;;;;;;;13.18;10.93;;;;;;;33.23;48.38;101034.38;1620355;87;21074;-94
2022/08/09 10:12:28;;;;;;;14.33;10.90;;;;;;;33.23;46.96;101026.29;1620420;87;21089;-94
2022/08/09 10:15:15;;;;;;;12.88;10.32;;;;;;;33.32;45.76;101036.91;1620120;88;21619;-94
2022/08/09 10:17:46;;;;;;;9.63;8.78;;;;;;;33.39;44.62;101033.17;1639067;85;21098;-94
2022/08/09 10:20:25;;;;;;;10.63;9.55;;;;;;;33.46;42.55;101037.81;1648358;86;21106;-95
2022/08/09 10:22:59;;;;;;;9.65;8.55;;;;;;;33.50;40.51;101033.53;1609238;87;21007;-93
2022/08/09 10:25:24;;;;;;;8.53;7.83;;;;;;;33.55;40.06;101026.81;1602152;87;21597;-93
2022/08/09 10:27:51;;;;;;;8.38;7.78;;;;;;;33.63;37.53;101030.92;1601042;87;21021;-92
2022/08/09 10:30:18;;;;;;;8.35;7.75;;;;;;;33.71;40.65;101032.30;1601925;87;21105;-94
2022/08/09 10:32:50;;;;;;;8.73;7.90;;;;;;;33.78;38.56;101031.53;1607743;86;21614;-93
2022/08/09 10:35:17;;;;;;;9.63;8.45;;;;;;;33.89;39.19;101018.40;1609953;87;21161;-94
2022/08/09 10:37:45;;;;;;;9.05;8.20;;;;;;;33.99;38.46;101016.83;1608305;87;21107;-92
2022/08/09 10:40:13;;;;;;;9.30;8.33;;;;;;;34.06;37.99;101019.54;1606410;87;21632;-92
2022/08/09 10:42:40;;;;;;;8.35;7.65;;;;;;;34.09;37.94;101015.52;1607455;88;20987;-93
2022/08/09 10:45:12;;;;;;;9.03;8.13;;;;;;;34.05;39.28;101012.51;1607274;87;21162;-93
2022/08/09 10:48:06;;;;;;;9.80;8.28;;;;;;;34.05;41.93;101013.86;1609489;87;21139;-92
2022/08/09 10:51:13;;;;;;;9.00;8.08;;;;;;;34.12;40.56;101011.75;1605504;87;21664;-93
2022/08/09 10:54:05;;;;;;;8.98;6.20;;;;;;;34.24;39.14;101014.23;1597350;87;21115;-93
2022/08/09 10:56:36;;;;;;;5.78;5.20;;;;;;;34.28;34.15;101018.01;1583095;89;21967;-93
2022/08/09 10:59:28;;;;;;;6.37;5.70;;;;;;;34.31;33.36;101010.45;1597395;88;21827;-93
2022/08/09 11:01:57;;;;;;;5.80;5.22;;;;;;;34.37;33.01;101006.69;1596741;88;21573;-93
2022/08/09 11:04:28;;;;;;;6.37;5.65;;;;;;;34.40;37.58;101006.19;1596324;88;21115;-93
2022/08/09 11:07:08;;;;;;;9.75;5.90;;;;;;;34.38;36.26;100998.88;1595253;88;21126;-90
2022/08/09 11:09:47;;;;;;;5.53;5.03;;;;;;;34.38;35.34;101000.23;1595527;89;21091;-92
2022/08/09 11:12:24;;;;;;;7.78;6.35;;;;;;;34.43;37.71;100993.48;1598498;88;21920;-92
2022/08/09 11:15:03;;;;;;;7.72;6.25;;;;;;;34.49;36.39;100992.95;1599312;88;21699;-92
2022/08/09 11:17:35;;;;;;;6.65;6.05;;;;;;;34.54;36.08;100997.01;1598328;88;21735;-93
2022/08/09 11:20:09;;;;;;;7.10;6.03;;;;;;;34.59;33.55;100995.68;1599805;88;21083;-92
2022/08/09 11:22:55;;;;;;;5.90;5.40;;;;;;;34.67;34.28;100988.39;1599959;88;21098;-92
2022/08/09 11:25:34;;;;;;;5.08;4.45;;;;;;;34.80;34.74;100993.81;1580777;89;49850;-92
2022/08/09 11:28:36;;;;;;;5.10;4.58;;;;;;;34.91;36.15;100987.34;1599892;88;21095;-92